Time;durP1;ratioP1;P1;durP2;ratioP2;P2;SDS_P1;SDS_P2;PMS_P1;PMS_P2;Temp;Humidity;BMP_temperature;BMP_pressure;BME280_temperature;BME280_humidity;BME280_pressure;Samples;Min_cycle;Max_cycle;Signal;HPM_P1;HPM_P2
2022/01/19 00:00:37;;;;;;;11.63;5.88;;;;;;;4.43;84.24;102117.50;20965847;28;20118;-72
2022/01/19 00:10:39;;;;;;;11.45;5.95;;;;;;;4.45;82.39;102118.44;20965539;28;20072;-73
2022/01/19 00:20:41;;;;;;;11.00;5.70;;;;;;;4.29;83.04;102063.41;20963227;28;20583;-72
2022/01/19 00:30:43;;;;;;;11.63;5.88;;;;;;;3.90;85.43;102057.63;20950730;28;20067;-72
2022/01/19 00:40:46;;;;;;;12.30;6.13;;;;;;;3.63;87.78;102085.06;20949942;28;20069;-72
2022/01/19 00:50:47;;;;;;;15.25;6.95;;;;;;;3.40;88.52;102071.19;20949591;28;20045;-72
2022/01/19 01:00:49;;;;;;;13.55;6.95;;;;;;;3.17;90.13;102054.75;20949481;28;20505;-72
2022/01/19 01:10:51;;;;;;;14.82;7.47;;;;;;;2.93;92.17;102045.16;20949380;28;20071;-72
2022/01/19 01:20:55;;;;;;;16.60;7.05;;;;;;;2.58;91.19;102030.69;20945219;28;20059;-72
2022/01/19 01:53:41;;;;;;;16.23;7.10;;;;;;;1.97;94.47;102028.91;20940165;28;20507;-72
2022/01/19 02:03:44;;;;;;;13.77;6.25;;;;;;;1.76;95.15;101995.22;20957298;28;20057;-71
2022/01/19 02:24:12;;;;;;;13.00;7.13;;;;;;;1.93;95.79;101891.81;20939038;28;20052;-72
2022/01/19 02:54:46;;;;;;;14.32;7.32;;;;;;;1.71;96.69;101826.31;20939445;28;20052;-72
2022/01/19 03:15:10;;;;;;;11.38;7.15;;;;;;;1.60;97.33;101795.69;20938582;28;20053;-71
2022/01/19 03:25:13;;;;;;;19.13;6.97;;;;;;;1.67;95.57;101785.69;20940275;28;20399;-71
2022/01/19 03:35:15;;;;;;;16.75;7.65;;;;;;;1.54;96.44;101780.81;20938262;28;20803;-72
2022/01/19 03:45:17;;;;;;;18.00;7.93;;;;;;;1.45;96.48;101789.06;20938591;28;20048;-72
2022/01/19 03:55:19;;;;;;;16.98;7.68;;;;;;;1.34;96.94;101766.16;20939014;28;20053;-72
2022/01/19 04:05:37;;;;;;;15.23;7.45;;;;;;;1.20;97.04;101758.72;20954421;28;20078;-72
2022/01/19 04:15:39;;;;;;;16.67;5.53;;;;;;;0.83;99.18;101732.09;20950680;28;20118;-71
2022/01/19 04:25:40;;;;;;;11.68;5.75;;;;;;;0.42;98.76;101729.38;20975396;28;20064;-71
2022/01/19 04:35:50;;;;;;;15.48;6.70;;;;;;;0.31;100.00;101719.41;20950801;28;20057;-71
2022/01/19 05:06:34;;;;;;;51.95;16.75;;;;;;;-0.35;100.00;101706.81;20943361;28;20418;-73
2022/01/19 05:16:35;;;;;;;18.47;7.63;;;;;;;-0.53;100.00;101701.66;20947798;28;20098;-72
2022/01/19 05:26:38;;;;;;;13.73;7.15;;;;;;;-0.59;100.00;101693.59;20946897;28;20486;-71
2022/01/19 05:36:39;;;;;;;16.63;7.50;;;;;;;-0.72;100.00;101726.34;20945877;28;20410;-71
2022/01/19 05:46:41;;;;;;;17.98;7.97;;;;;;;-0.88;100.00;101725.56;20947002;28;20394;-71
2022/01/19 05:56:42;;;;;;;21.35;7.75;;;;;;;-0.95;100.00;101713.19;20946007;28;20098;-71
2022/01/19 06:06:44;;;;;;;19.38;7.90;;;;;;;-0.97;100.00;101706.19;20936246;28;20545;-70
2022/01/19 06:16:45;;;;;;;29.67;13.10;;;;;;;-1.00;100.00;101696.66;20944668;28;20049;-71
2022/01/19 06:26:47;;;;;;;22.70;10.90;;;;;;;-0.99;100.00;101690.72;20943706;28;20575;-71
2022/01/19 06:36:51;;;;;;;22.42;10.82;;;;;;;-1.05;100.00;101685.25;20942734;28;20051;-69
2022/01/19 06:46:53;;;;;;;27.38;14.00;;;;;;;-1.17;100.00;101677.78;20957174;28;20064;-69
2022/01/19 06:56:54;;;;;;;22.92;10.88;;;;;;;-1.11;100.00;101674.63;20944205;28;20080;-70
2022/01/19 07:06:56;;;;;;;18.98;9.65;;;;;;;-1.18;100.00;101668.31;20939682;28;20049;-69
2022/01/19 07:16:58;;;;;;;28.95;13.05;;;;;;;-1.18;100.00;101683.72;20936447;28;20056;-69
2022/01/19 07:26:59;;;;;;;24.77;11.57;;;;;;;-1.18;100.00;101670.00;20938263;28;20041;-68
2022/01/19 07:37:01;;;;;;;20.92;11.70;;;;;;;-1.17;100.00;101664.06;20955508;28;20049;-69
2022/01/19 07:47:03;;;;;;;18.25;9.60;;;;;;;-1.08;100.00;101667.09;20955746;28;20057;-70
2022/01/19 07:57:05;;;;;;;21.30;9.95;;;;;;;-0.93;100.00;101667.00;20948321;28;20041;-69
2022/01/19 08:07:07;;;;;;;33.33;17.00;;;;;;;-0.81;100.00;101649.63;20922974;28;20048;-69
2022/01/19 08:17:09;;;;;;;29.88;15.95;;;;;;;-0.58;100.00;101653.31;20922915;28;20048;-69
2022/01/19 08:27:10;;;;;;;30.30;15.88;;;;;;;-0.38;100.00;101647.50;20918343;28;20110;-70
2022/01/19 08:37:15;;;;;;;32.80;16.45;;;;;;;-0.14;100.00;101658.09;20912771;28;20057;-71
2022/01/19 08:47:16;;;;;;;36.03;17.02;;;;;;;0.13;100.00;101648.19;20926508;28;20417;-71
2022/01/19 08:57:26;;;;;;;35.55;17.05;;;;;;;0.65;100.00;101637.66;20940616;28;20071;-72
2022/01/19 09:07:28;;;;;;;36.80;17.35;;;;;;;1.06;100.00;101633.44;20960690;28;20044;-70
2022/01/19 09:17:29;;;;;;;32.70;17.85;;;;;;;1.30;99.70;101617.22;20942476;28;20099;-70
2022/01/19 09:27:31;;;;;;;38.70;20.52;;;;;;;1.62;98.32;101621.97;20940128;28;20470;-69
2022/01/19 09:37:34;;;;;;;36.50;17.65;;;;;;;1.97;96.91;101609.59;20939306;28;20049;-70
2022/01/19 09:47:56;;;;;;;30.70;16.75;;;;;;;2.21;94.48;101600.19;20936361;28;20131;-69
2022/01/19 09:57:57;;;;;;;35.70;17.02;;;;;;;2.35;94.58;101576.53;20929663;28;20465;-71
2022/01/19 10:08:00;;;;;;;29.75;16.42;;;;;;;2.57;92.61;101569.59;20938077;28;20057;-70
2022/01/19 10:18:08;;;;;;;26.00;15.20;;;;;;;2.79;91.44;101549.69;20934909;28;20121;-72
2022/01/19 10:28:10;;;;;;;27.88;13.82;;;;;;;2.95;88.94;101536.44;20936329;28;20076;-69
2022/01/19 10:38:25;;;;;;;29.77;15.65;;;;;;;3.15;88.44;101523.25;20929646;28;20106;-70
2022/01/19 10:48:44;;;;;;;25.35;13.88;;;;;;;3.32;88.80;101517.81;20931660;28;20762;-70
2022/01/19 10:59:17;;;;;;;25.08;13.40;;;;;;;3.68;85.59;101517.16;20932060;28;20147;-69
2022/01/19 11:09:25;;;;;;;22.95;12.40;;;;;;;4.21;82.43;101510.06;20911744;28;20036;-75
2022/01/19 11:19:26;;;;;;;25.92;13.80;;;;;;;3.79;84.25;101504.56;20934616;28;20044;-69
2022/01/19 11:29:30;;;;;;;27.30;14.18;;;;;;;3.45;86.70;101481.94;20932527;28;20071;-69
2022/01/19 11:39:31;;;;;;;27.70;13.88;;;;;;;3.43;86.88;101468.06;20951258;28;20107;-67
2022/01/19 11:49:51;;;;;;;25.08;12.77;;;;;;;3.43;86.90;101470.66;20932359;28;20057;-67
2022/01/19 11:59:53;;;;;;;26.83;14.60;;;;;;;3.48;85.85;101451.84;20929694;28;20086;-68
2022/01/19 12:09:56;;;;;;;25.27;14.30;;;;;;;3.54;86.74;101438.19;20925122;28;20089;-68
2022/01/19 12:20:01;;;;;;;26.87;14.93;;;;;;;3.48;86.87;101431.13;20923410;28;20072;-69
2022/01/19 12:30:21;;;;;;;29.17;14.90;;;;;;;3.57;86.56;101427.94;20945322;28;20102;-69
2022/01/19 12:40:24;;;;;;;30.63;15.38;;;;;;;3.48;87.57;101404.34;20940060;28;20509;-69
2022/01/19 12:50:29;;;;;;;28.58;15.57;;;;;;;3.56;88.01;101401.16;20942563;28;20045;-68
2022/01/19 13:00:32;;;;;;;30.35;15.32;;;;;;;3.58;88.29;101380.47;20940452;28;20049;-69
2022/01/19 13:10:45;;;;;;;25.02;14.95;;;;;;;3.33;90.49;101364.25;20939439;28;20069;-70
2022/01/19 13:20:53;;;;;;;29.40;15.60;;;;;;;3.44;90.08;101364.56;20940096;28;20057;-70
2022/01/19 13:30:57;;;;;;;33.22;18.13;;;;;;;3.43;92.18;101344.69;20939941;28;20106;-68
2022/01/19 13:41:04;;;;;;;30.13;15.57;;;;;;;3.46;92.90;101349.97;20929505;28;20458;-67
2022/01/19 13:51:09;;;;;;;27.48;14.98;;;;;;;3.43;92.24;101354.16;20942096;28;20086;-67
2022/01/19 14:01:15;;;;;;;27.27;14.23;;;;;;;3.59;90.53;101338.22;20934361;28;20052;-67
2022/01/19 14:11:24;;;;;;;27.77;14.13;;;;;;;3.58;90.94;101337.34;20958391;28;20047;-67
2022/01/19 14:21:25;;;;;;;28.67;15.98;;;;;;;3.57;89.68;101335.59;20936814;28;20132;-67
2022/01/19 14:31:26;;;;;;;27.90;14.52;;;;;;;3.50;91.08;101335.41;20930040;28;20052;-67
2022/01/19 14:41:31;;;;;;;29.02;15.00;;;;;;;3.50;91.17;101296.56;20930604;28;20059;-66
2022/01/19 14:51:37;;;;;;;31.17;15.15;;;;;;;3.53;90.76;101294.03;20925408;28;20049;-68
2022/01/19 15:01:51;;;;;;;27.08;14.27;;;;;;;3.51;91.32;101285.34;20920253;28;20059;-66
2022/01/19 15:11:53;;;;;;;25.85;13.80;;;;;;;3.55;90.82;101279.44;20928809;28;20053;-69
2022/01/19 15:21:55;;;;;;;27.77;14.13;;;;;;;3.51;92.11;101267.22;20928748;28;20045;-68
2022/01/19 15:31:56;;;;;;;30.92;14.60;;;;;;;3.60;90.92;101264.91;20917570;28;20040;-66
2022/01/19 15:41:58;;;;;;;25.65;12.65;;;;;;;3.70;90.43;101266.00;20928636;28;20078;-66
2022/01/19 15:51:59;;;;;;;23.38;12.85;;;;;;;3.88;89.42;101257.81;20932777;28;20551;-69
2022/01/19 16:02:01;;;;;;;27.58;13.43;;;;;;;3.93;89.31;101256.22;20942493;28;20060;-69
2022/01/19 16:12:04;;;;;;;26.15;12.35;;;;;;;3.85;89.34;101241.38;20944350;28;20049;-68
2022/01/19 16:26:06;;;;;;;27.20;12.32;;;;;;;3.86;88.77;101222.38;20946178;28;20593;-68
2022/01/19 16:32:31;;;;;;;24.25;11.32;;;;;;;3.71;90.42;101258.28;20943945;28;20098;-67
2022/01/19 16:42:33;;;;;;;26.85;13.05;;;;;;;3.73;90.82;101245.34;20965654;28;20056;-68
2022/01/19 16:52:34;;;;;;;25.17;12.55;;;;;;;3.73;90.79;101256.59;20941170;28;20053;-71
2022/01/19 17:02:36;;;;;;;25.30;11.68;;;;;;;3.77;90.28;101242.88;20940930;28;20045;-70
2022/01/19 17:12:39;;;;;;;27.20;12.57;;;;;;;3.79;90.22;101232.59;20941249;28;20056;-69
2022/01/19 17:22:41;;;;;;;23.95;11.63;;;;;;;3.79;90.74;101235.16;20930354;28;20579;-70
2022/01/19 17:32:42;;;;;;;23.88;11.80;;;;;;;3.82;89.87;101236.09;20934798;28;20111;-70
2022/01/19 17:42:45;;;;;;;23.17;10.65;;;;;;;3.85;90.39;101256.03;20933527;28;20049;-69
2022/01/19 17:52:47;;;;;;;21.48;11.20;;;;;;;3.80;92.34;101258.50;20934067;28;20197;-70
2022/01/19 18:02:49;;;;;;;23.98;11.20;;;;;;;3.76;92.51;101246.31;20929927;28;20101;-70
2022/01/19 18:12:50;;;;;;;23.58;11.73;;;;;;;3.71;93.94;101247.03;20932341;28;20107;-70
2022/01/19 18:22:52;;;;;;;22.27;11.02;;;;;;;3.74;93.19;101283.38;20931624;28;20045;-70
2022/01/19 18:32:54;;;;;;;22.35;10.85;;;;;;;3.82;94.11;101267.19;20928650;28;20048;-70
2022/01/19 18:42:58;;;;;;;20.67;9.98;;;;;;;3.77;93.66;101279.13;20930655;28;20052;-70
2022/01/19 18:52:59;;;;;;;22.08;10.57;;;;;;;3.79;94.15;101272.31;20930602;28;20398;-70
2022/01/19 19:03:01;;;;;;;23.33;11.05;;;;;;;3.71;94.28;101273.81;20930591;28;20056;-70
2022/01/19 19:13:03;;;;;;;21.50;11.07;;;;;;;3.75;95.13;101275.66;19992329;28;10000768;-70
2022/01/19 19:23:04;;;;;;;22.70;10.05;;;;;;;3.73;94.75;101282.47;20844838;28;20183;-70
2022/01/19 19:33:06;;;;;;;25.52;11.48;;;;;;;3.83;94.86;101279.31;20867431;28;20149;-69
2022/01/19 19:43:08;;;;;;;24.55;11.95;;;;;;;3.83;95.49;101253.41;20870690;28;20498;-70
2022/01/19 19:53:10;;;;;;;30.27;13.63;;;;;;;3.69;97.20;101248.69;20868146;28;20048;-70
2022/01/19 20:03:12;;;;;;;20.60;11.38;;;;;;;3.63;97.58;101259.78;20868684;28;20074;-70
2022/01/19 20:13:25;;;;;;;22.50;11.02;;;;;;;3.66;97.36;101249.50;20869150;28;20049;-71
2022/01/19 20:23:27;;;;;;;20.60;10.68;;;;;;;3.69;97.08;101239.25;20869255;28;21537;-70
2022/01/19 20:33:28;;;;;;;22.58;11.02;;;;;;;3.77;96.09;101247.19;20866839;28;20469;-70
2022/01/19 20:43:30;;;;;;;24.98;10.95;;;;;;;3.82;95.85;101240.41;20864441;28;20126;-69
2022/01/19 20:53:32;;;;;;;25.23;13.32;;;;;;;3.79;96.21;101236.03;20865908;28;20056;-69
2022/01/19 21:03:33;;;;;;;22.20;10.80;;;;;;;3.84;96.07;101233.56;20863685;28;20096;-69
2022/01/19 21:13:35;;;;;;;22.40;11.00;;;;;;;3.82;96.28;101230.91;20862206;28;20507;-69
2022/01/19 21:23:36;;;;;;;19.52;10.65;;;;;;;3.82;95.96;101236.09;20863548;28;20088;-69
2022/01/19 21:33:39;;;;;;;19.10;9.75;;;;;;;3.81;95.72;101234.34;20891777;28;20463;-69
2022/01/19 21:43:44;;;;;;;18.67;9.35;;;;;;;3.89;95.41;101233.69;20957480;28;20057;-68
2022/01/19 21:53:48;;;;;;;18.58;9.75;;;;;;;3.88;94.90;101213.78;20952578;28;20510;-71
2022/01/19 22:03:50;;;;;;;17.58;9.52;;;;;;;3.88;94.84;101213.78;20946496;28;20490;-70
2022/01/19 22:13:51;;;;;;;17.63;9.57;;;;;;;3.83;95.50;101209.38;20936300;28;20135;-71
2022/01/19 22:23:53;;;;;;;18.15;9.77;;;;;;;3.79;95.84;101219.63;20933895;28;20132;-70
2022/01/19 22:33:54;;;;;;;16.88;9.00;;;;;;;3.78;95.67;101229.09;20932084;28;20479;-70
2022/01/19 22:43:56;;;;;;;15.93;8.88;;;;;;;3.77;95.70;101235.09;20932184;28;20045;-71
2022/01/19 22:53:58;;;;;;;17.42;9.13;;;;;;;3.69;97.91;101246.09;20932495;28;20048;-71
2022/01/19 23:04:02;;;;;;;17.65;9.13;;;;;;;3.67;97.98;101246.06;20934728;28;20044;-71
2022/01/19 23:14:14;;;;;;;16.08;8.57;;;;;;;3.57;100.00;101244.09;20941628;28;20501;-73
2022/01/19 23:24:16;;;;;;;18.77;9.18;;;;;;;3.42;100.00;101244.56;20945451;28;20048;-73
2022/01/19 23:34:23;;;;;;;15.85;7.95;;;;;;;3.38;100.00;101247.91;20953629;28;20127;-75
2022/01/19 23:54:44;;;;;;;16.13;7.90;;;;;;;3.30;100.00;101250.25;20941619;28;20052;-72
